Time;durP1;ratioP1;P1;durP2;ratioP2;P2;SDS_P1;SDS_P2;PMS_P1;PMS_P2;Temp;Humidity;BMP_temperature;BMP_pressure;BME280_temperature;BME280_humidity;BME280_pressure;Samples;Min_cycle;Max_cycle;Signal;HPM_P1;HPM_P2
2021/05/12 00:02:20;;;;;;;19.45;15.15;;;;;;;;;;5036551;28;20209;-68
2021/05/12 00:04:46;;;;;;;18.00;13.75;;;;;;;;;;5034139;28;20220;-68
2021/05/12 00:07:11;;;;;;;14.32;12.80;;;;;;;;;;5037771;28;20217;-68
2021/05/12 00:09:36;;;;;;;14.20;12.25;;;;;;;;;;5024882;28;20193;-69
2021/05/12 00:12:02;;;;;;;12.63;10.82;;;;;;;;;;5038885;28;20186;-69
2021/05/12 00:14:30;;;;;;;14.90;11.45;;;;;;;;;;5033192;28;20189;-68
2021/05/12 00:16:56;;;;;;;13.75;11.40;;;;;;;;;;5032716;28;20575;-69
2021/05/12 00:19:22;;;;;;;12.57;11.27;;;;;;;;;;5033362;28;20194;-69
2021/05/12 00:22:02;;;;;;;15.20;11.98;;;;;;;;;;5033588;28;20232;-69
2021/05/12 00:24:28;;;;;;;13.55;11.05;;;;;;;;;;5035472;28;20166;-69
2021/05/12 00:26:53;;;;;;;13.18;10.73;;;;;;;;;;5034240;28;20565;-69
2021/05/12 00:29:18;;;;;;;14.90;11.20;;;;;;;;;;5035264;28;20192;-69
2021/05/12 00:31:45;;;;;;;14.65;11.63;;;;;;;;;;5028699;28;20185;-69
2021/05/12 00:34:10;;;;;;;13.80;11.00;;;;;;;;;;5041174;28;20178;-69
2021/05/12 00:36:36;;;;;;;13.55;10.88;;;;;;;;;;5031734;28;20201;-69
2021/05/12 00:39:05;;;;;;;13.48;10.60;;;;;;;;;;5033720;28;20170;-69
2021/05/12 00:41:31;;;;;;;13.23;11.10;;;;;;;;;;5030916;28;20508;-69
2021/05/12 00:43:56;;;;;;;13.18;10.65;;;;;;;;;;5038893;28;20582;-69
2021/05/12 00:46:22;;;;;;;13.38;10.57;;;;;;;;;;5035160;28;20193;-69
2021/05/12 00:48:47;;;;;;;12.82;10.40;;;;;;;;;;5034418;28;20267;-69
2021/05/12 00:51:13;;;;;;;12.38;10.57;;;;;;;;;;5040603;28;20272;-69
2021/05/12 00:53:38;;;;;;;14.52;10.70;;;;;;;;;;5034846;28;20650;-69
2021/05/12 00:56:04;;;;;;;14.50;11.18;;;;;;;;;;5039152;28;20200;-69
2021/05/12 00:58:31;;;;;;;13.38;10.80;;;;;;;;;;5027593;28;20190;-69
2021/05/12 01:00:56;;;;;;;12.77;10.50;;;;;;;;;;5044454;28;20201;-69
2021/05/12 01:03:22;;;;;;;13.45;11.05;;;;;;;;;;5032127;28;20559;-69
2021/05/12 01:05:50;;;;;;;16.65;11.73;;;;;;;;;;5040751;28;20189;-69
2021/05/12 01:08:20;;;;;;;13.75;12.00;;;;;;;;;;5027467;28;20201;-69
2021/05/12 01:10:46;;;;;;;18.05;12.80;;;;;;;;;;5038866;28;20298;-69
2021/05/12 01:13:13;;;;;;;13.23;11.27;;;;;;;;;;5035171;28;20259;-69
2021/05/12 01:15:42;;;;;;;13.65;11.68;;;;;;;;;;5036486;28;20205;-69
2021/05/12 01:18:21;;;;;;;13.95;11.98;;;;;;;;;;5029570;28;20174;-69
2021/05/12 01:20:54;;;;;;;14.80;12.02;;;;;;;;;;5040465;28;20185;-69
2021/05/12 01:23:21;;;;;;;13.77;12.18;;;;;;;;;;5037847;28;20284;-69
2021/05/12 01:25:48;;;;;;;16.55;12.63;;;;;;;;;;5043651;28;20265;-69
2021/05/12 01:28:14;;;;;;;14.52;13.02;;;;;;;;;;5039183;28;20291;-70
2021/05/12 01:30:40;;;;;;;18.50;13.75;;;;;;;;;;5033448;28;20545;-69
2021/05/12 01:33:06;;;;;;;15.48;13.23;;;;;;;;;;5038684;28;20641;-69
2021/05/12 01:35:31;;;;;;;16.92;13.30;;;;;;;;;;5028809;28;20185;-69
2021/05/12 01:37:57;;;;;;;18.90;14.52;;;;;;;;;;5033601;28;20189;-69
2021/05/12 01:40:22;;;;;;;23.33;14.63;;;;;;;;;;5034327;28;20186;-69
2021/05/12 01:42:48;;;;;;;17.65;13.80;;;;;;;;;;5038402;28;20316;-68
2021/05/12 01:45:13;;;;;;;18.45;12.98;;;;;;;;;;5034227;28;20216;-69
2021/05/12 01:47:39;;;;;;;15.98;12.95;;;;;;;;;;5034054;28;20200;-69
2021/05/12 01:50:09;;;;;;;14.23;12.70;;;;;;;;;;5035329;28;20498;-69
2021/05/12 01:52:40;;;;;;;19.85;12.77;;;;;;;;;;5034894;28;20240;-69
2021/05/12 01:55:07;;;;;;;16.45;14.07;;;;;;;;;;5028395;28;20656;-69
2021/05/12 01:57:32;;;;;;;16.58;14.13;;;;;;;;;;5034713;28;20193;-69
2021/05/12 01:59:58;;;;;;;15.95;13.88;;;;;;;;;;5037690;28;20211;-69
2021/05/12 02:02:23;;;;;;;17.65;14.02;;;;;;;;;;5026617;28;21271;-69
2021/05/12 02:04:48;;;;;;;18.83;14.27;;;;;;;;;;5035392;28;20186;-69
2021/05/12 02:07:14;;;;;;;19.40;15.40;;;;;;;;;;5027452;28;20212;-69
2021/05/12 02:09:44;;;;;;;20.38;14.82;;;;;;;;;;5038117;28;20184;-69
2021/05/12 02:12:09;;;;;;;22.33;16.33;;;;;;;;;;5034578;28;20652;-69
2021/05/12 02:14:35;;;;;;;20.70;15.98;;;;;;;;;;5043200;28;20186;-69
2021/05/12 02:17:00;;;;;;;20.42;15.43;;;;;;;;;;5032183;28;20193;-69
2021/05/12 02:19:26;;;;;;;19.23;15.63;;;;;;;;;;5040457;28;20522;-69
2021/05/12 02:21:51;;;;;;;18.00;15.50;;;;;;;;;;5026441;28;20280;-69
2021/05/12 02:24:17;;;;;;;18.55;15.93;;;;;;;;;;5040711;28;20269;-69
2021/05/12 02:26:42;;;;;;;20.85;16.35;;;;;;;;;;5029001;28;20190;-69
2021/05/12 02:29:08;;;;;;;18.98;15.32;;;;;;;;;;5037471;28;20263;-69
2021/05/12 02:31:33;;;;;;;20.20;16.20;;;;;;;;;;5039673;28;20175;-69
2021/05/12 02:33:59;;;;;;;22.55;16.75;;;;;;;;;;5037058;28;20201;-69
2021/05/12 02:36:24;;;;;;;19.98;15.88;;;;;;;;;;5036979;28;20557;-69
2021/05/12 02:38:49;;;;;;;19.02;15.23;;;;;;;;;;5028458;28;20185;-69
2021/05/12 02:41:15;;;;;;;19.00;15.00;;;;;;;;;;5038256;28;20185;-69
2021/05/12 02:43:40;;;;;;;17.20;14.23;;;;;;;;;;5032515;28;20236;-69
2021/05/12 02:46:06;;;;;;;17.92;14.70;;;;;;;;;;5035387;28;20200;-69
2021/05/12 02:48:31;;;;;;;18.42;14.82;;;;;;;;;;5040669;28;20201;-69
2021/05/12 02:50:57;;;;;;;19.35;14.95;;;;;;;;;;5038418;28;20554;-69
2021/05/12 02:53:22;;;;;;;17.95;13.68;;;;;;;;;;5038913;28;20182;-68
2021/05/12 02:55:49;;;;;;;17.88;15.10;;;;;;;;;;5039845;28;20200;-69
2021/05/12 02:58:15;;;;;;;19.17;14.43;;;;;;;;;;5031791;28;20544;-68
2021/05/12 03:00:42;;;;;;;19.83;15.63;;;;;;;;;;5037208;28;20194;-69
2021/05/12 03:03:09;;;;;;;18.98;14.23;;;;;;;;;;5038014;28;20261;-68
2021/05/12 03:05:35;;;;;;;16.63;14.85;;;;;;;;;;5028132;28;20193;-68
2021/05/12 03:08:01;;;;;;;18.52;14.82;;;;;;;;;;5038875;28;20253;-68
2021/05/12 03:10:27;;;;;;;18.48;15.73;;;;;;;;;;5034261;28;20767;-69
2021/05/12 03:12:53;;;;;;;18.23;15.43;;;;;;;;;;5044877;28;20189;-68
2021/05/12 03:15:21;;;;;;;23.30;15.70;;;;;;;;;;5030576;28;20204;-68
2021/05/12 03:17:48;;;;;;;22.30;16.88;;;;;;;;;;5039708;28;20182;-68
2021/05/12 03:20:16;;;;;;;22.33;16.98;;;;;;;;;;5030236;28;20181;-68
2021/05/12 03:22:41;;;;;;;20.23;16.42;;;;;;;;;;5045535;28;20256;-68
2021/05/12 03:25:07;;;;;;;20.80;18.15;;;;;;;;;;5032451;28;20297;-68
2021/05/12 03:27:32;;;;;;;23.13;17.40;;;;;;;;;;5042952;28;20216;-69
2021/05/12 03:29:58;;;;;;;24.67;17.55;;;;;;;;;;5032840;28;20193;-68
2021/05/12 03:32:23;;;;;;;26.55;19.08;;;;;;;;;;5037537;28;20178;-68
2021/05/12 03:34:48;;;;;;;23.38;17.20;;;;;;;;;;5033569;28;20194;-69
2021/05/12 03:37:14;;;;;;;24.85;18.35;;;;;;;;;;5027687;28;20182;-69
2021/05/12 03:39:39;;;;;;;25.63;19.88;;;;;;;;;;5037790;28;20364;-69
2021/05/12 03:42:05;;;;;;;30.13;20.42;;;;;;;;;;5031517;28;20637;-69
2021/05/12 03:44:30;;;;;;;30.30;21.05;;;;;;;;;;5045732;28;20190;-69
2021/05/12 03:46:56;;;;;;;28.58;21.42;;;;;;;;;;5030522;28;20196;-69
2021/05/12 03:49:21;;;;;;;33.75;22.52;;;;;;;;;;5039071;28;20612;-69
2021/05/12 03:51:47;;;;;;;35.38;23.45;;;;;;;;;;5033919;28;20545;-69
2021/05/12 03:54:12;;;;;;;32.25;22.85;;;;;;;;;;5037453;28;20281;-69
2021/05/12 03:56:37;;;;;;;31.13;22.02;;;;;;;;;;5031949;28;20190;-69
2021/05/12 03:59:03;;;;;;;35.60;24.02;;;;;;;;;;5034547;28;20233;-69
2021/05/12 04:01:28;;;;;;;34.80;22.77;;;;;;;;;;5027114;28;20202;-69
2021/05/12 04:03:54;;;;;;;31.45;22.58;;;;;;;;;;5036901;28;20192;-69
2021/05/12 04:06:19;;;;;;;40.58;26.27;;;;;;;;;;5036773;28;20186;-69
2021/05/12 04:08:44;;;;;;;42.53;27.30;;;;;;;;;;5038627;28;20208;-69
2021/05/12 04:11:10;;;;;;;38.33;26.60;;;;;;;;;;5040277;28;20217;-69
2021/05/12 04:13:36;;;;;;;42.25;27.65;;;;;;;;;;5032059;28;20190;-69
2021/05/12 04:16:02;;;;;;;39.10;26.35;;;;;;;;;;5044348;28;20186;-69
2021/05/12 04:18:27;;;;;;;41.67;27.33;;;;;;;;;;5028899;28;20196;-69
2021/05/12 04:20:53;;;;;;;39.17;25.73;;;;;;;;;;5038679;28;20189;-68
2021/05/12 04:23:18;;;;;;;37.80;26.65;;;;;;;;;;5028194;28;20185;-69
2021/05/12 04:25:44;;;;;;;34.83;22.95;;;;;;;;;;5042987;28;20193;-69
2021/05/12 04:28:10;;;;;;;42.65;26.67;;;;;;;;;;5034789;28;20712;-69
2021/05/12 04:30:35;;;;;;;38.97;25.98;;;;;;;;;;5039465;28;20229;-69
2021/05/12 04:33:00;;;;;;;37.15;26.10;;;;;;;;;;5038841;28;20993;-69
2021/05/12 04:35:27;;;;;;;38.92;25.38;;;;;;;;;;5035484;28;20225;-69
2021/05/12 04:37:53;;;;;;;33.17;24.05;;;;;;;;;;5045296;28;20205;-69
2021/05/12 04:40:20;;;;;;;36.53;24.83;;;;;;;;;;5030592;28;20193;-69
2021/05/12 04:42:46;;;;;;;35.22;23.55;;;;;;;;;;5034095;28;20233;-69
2021/05/12 04:45:15;;;;;;;31.95;22.38;;;;;;;;;;5029133;28;20182;-68
2021/05/12 04:47:40;;;;;;;37.95;24.10;;;;;;;;;;5038989;28;20256;-68
2021/05/12 04:50:08;;;;;;;37.35;24.38;;;;;;;;;;5027820;28;20701;-68
2021/05/12 04:52:34;;;;;;;26.83;19.40;;;;;;;;;;5029398;28;20193;-68
2021/05/12 04:54:59;;;;;;;35.60;23.50;;;;;;;;;;5027570;28;20181;-68
2021/05/12 04:57:25;;;;;;;33.67;23.70;;;;;;;;;;5037503;28;20685;-68
2021/05/12 04:59:50;;;;;;;36.33;23.90;;;;;;;;;;5032488;28;20213;-68
2021/05/12 05:02:16;;;;;;;36.28;22.40;;;;;;;;;;5029292;28;20277;-68
2021/05/12 05:04:41;;;;;;;30.65;21.23;;;;;;;;;;5031396;28;20559;-68
2021/05/12 05:07:08;;;;;;;33.38;22.92;;;;;;;;;;5034472;28;20184;-68
2021/05/12 05:09:33;;;;;;;30.30;21.38;;;;;;;;;;5038200;28;20560;-68
2021/05/12 05:11:59;;;;;;;31.98;21.27;;;;;;;;;;5031006;28;20269;-68
2021/05/12 05:14:24;;;;;;;27.58;19.92;;;;;;;;;;5037050;28;20638;-68
2021/05/12 05:16:49;;;;;;;29.42;20.10;;;;;;;;;;5032377;28;20182;-68
2021/05/12 05:19:15;;;;;;;26.90;18.90;;;;;;;;;;5038890;28;20189;-68
2021/05/12 05:21:41;;;;;;;25.80;18.55;;;;;;;;;;5033313;28;20193;-68
2021/05/12 05:24:08;;;;;;;28.00;18.13;;;;;;;;;;5036219;28;20193;-68
2021/05/12 05:26:33;;;;;;;23.83;17.15;;;;;;;;;;5029365;28;20308;-69
2021/05/12 05:28:59;;;;;;;22.73;16.13;;;;;;;;;;5035721;28;20202;-68
2021/05/12 05:31:24;;;;;;;27.58;15.93;;;;;;;;;;4328705;28;10000773;-68
2021/05/12 05:33:49;;;;;;;21.42;14.40;;;;;;;;;;5037242;28;20186;-68
2021/05/12 05:36:15;;;;;;;22.38;14.90;;;;;;;;;;5024036;28;20178;-69
2021/05/12 05:38:40;;;;;;;18.88;12.57;;;;;;;;;;5035182;28;20299;-68
2021/05/12 05:41:05;;;;;;;20.42;11.82;;;;;;;;;;5029212;28;20257;-68
2021/05/12 05:43:31;;;;;;;19.95;13.20;;;;;;;;;;5027195;28;20592;-68
2021/05/12 05:45:56;;;;;;;22.95;12.73;;;;;;;;;;5031808;28;20185;-69
2021/05/12 05:48:22;;;;;;;19.10;12.35;;;;;;;;;;5027987;28;20672;-69
2021/05/12 05:50:48;;;;;;;20.08;12.55;;;;;;;;;;5038839;28;20176;-69
2021/05/12 05:53:17;;;;;;;20.02;12.20;;;;;;;;;;5030516;28;20197;-69
2021/05/12 05:55:43;;;;;;;17.50;10.32;;;;;;;;;;5037234;28;21493;-69
2021/05/12 05:58:08;;;;;;;16.50;10.63;;;;;;;;;;5026964;28;20181;-68
2021/05/12 06:00:33;;;;;;;20.55;10.50;;;;;;;;;;5033919;28;20209;-69
2021/05/12 06:03:00;;;;;;;14.45;9.32;;;;;;;;;;5023690;28;20212;-70
2021/05/12 06:05:25;;;;;;;15.30;9.35;;;;;;;;;;5034146;28;20279;-70
2021/05/12 06:07:51;;;;;;;17.67;10.32;;;;;;;;;;5026374;28;20636;-70
2021/05/12 06:10:16;;;;;;;17.02;10.13;;;;;;;;;;5037798;28;20263;-69
2021/05/12 06:12:41;;;;;;;15.30;9.77;;;;;;;;;;5038297;28;20189;-69
2021/05/12 06:15:07;;;;;;;12.32;8.63;;;;;;;;;;5030012;28;20216;-69
2021/05/12 06:17:33;;;;;;;16.00;9.73;;;;;;;;;;5030694;28;20177;-69
2021/05/12 06:19:58;;;;;;;12.38;8.10;;;;;;;;;;5030207;28;20284;-69
2021/05/12 06:22:24;;;;;;;14.68;9.23;;;;;;;;;;5037889;28;20192;-69
2021/05/12 06:24:49;;;;;;;15.75;8.07;;;;;;;;;;5048280;28;20614;-69
2021/05/12 06:27:14;;;;;;;15.15;7.97;;;;;;;;;;5044670;28;20190;-69
2021/05/12 06:29:40;;;;;;;15.13;8.15;;;;;;;;;;5030625;28;20188;-69
2021/05/12 06:32:06;;;;;;;13.32;8.13;;;;;;;;;;5036503;28;20190;-69
2021/05/12 06:34:33;;;;;;;17.55;7.63;;;;;;;;;;5033939;28;20195;-69
2021/05/12 06:36:59;;;;;;;13.82;7.45;;;;;;;;;;5037957;28;20196;-69
2021/05/12 06:39:25;;;;;;;9.73;6.18;;;;;;;;;;5032362;28;20198;-69
2021/05/12 06:41:50;;;;;;;10.95;6.70;;;;;;;;;;5038316;28;20181;-69
2021/05/12 06:44:15;;;;;;;11.82;6.63;;;;;;;;;;5044256;28;20312;-69
2021/05/12 06:46:41;;;;;;;12.00;6.43;;;;;;;;;;5030410;28;20561;-69
2021/05/12 06:49:06;;;;;;;15.45;6.88;;;;;;;;;;5041198;28;20592;-69
2021/05/12 06:51:31;;;;;;;13.38;6.10;;;;;;;;;;5038525;28;20189;-69
2021/05/12 06:53:57;;;;;;;11.13;6.47;;;;;;;;;;5044355;28;20378;-70
2021/05/12 06:56:22;;;;;;;12.60;6.88;;;;;;;;;;5034869;28;20189;-69
2021/05/12 06:58:47;;;;;;;13.80;5.85;;;;;;;;;;5038528;28;20200;-68
2021/05/12 07:01:13;;;;;;;10.35;5.88;;;;;;;;;;5035988;28;20195;-68
2021/05/12 07:03:38;;;;;;;12.68;6.35;;;;;;;;;;5044055;28;20276;-68
2021/05/12 07:06:04;;;;;;;13.43;6.63;;;;;;;;;;5031418;28;20191;-69
2021/05/12 07:08:31;;;;;;;18.05;6.55;;;;;;;;;;5044751;28;20209;-69
2021/05/12 07:10:56;;;;;;;11.27;4.60;;;;;;;;;;5037817;28;20208;-68
2021/05/12 07:13:22;;;;;;;10.15;4.00;;;;;;;;;;5036882;28;20186;-68
2021/05/12 07:15:47;;;;;;;11.30;4.07;;;;;;;;;;5035661;28;20182;-69
2021/05/12 07:18:13;;;;;;;7.38;3.35;;;;;;;;;;5036718;28;20181;-69
2021/05/12 07:20:38;;;;;;;7.82;3.75;;;;;;;;;;5038987;28;20214;-70
2021/05/12 07:23:23;;;;;;;7.60;3.40;;;;;;;;;;5035427;28;20670;-69
2021/05/12 07:25:50;;;;;;;11.35;3.72;;;;;;;;;;5040318;28;20281;-68
2021/05/12 07:28:16;;;;;;;13.65;3.67;;;;;;;;;;5031329;28;20289;-68
2021/05/12 07:30:45;;;;;;;11.05;3.72;;;;;;;;;;5040178;28;20410;-69
2021/05/12 07:33:10;;;;;;;10.90;3.50;;;;;;;;;;5037870;28;20186;-69
2021/05/12 07:35:36;;;;;;;10.73;4.13;;;;;;;;;;5039552;28;20174;-68
2021/05/12 07:38:01;;;;;;;9.20;4.22;;;;;;;;;;5034040;28;20178;-68
2021/05/12 07:40:34;;;;;;;9.82;3.67;;;;;;;;;;5036149;28;20193;-69
2021/05/12 07:43:07;;;;;;;8.88;4.22;;;;;;;;;;5036596;28;20225;-68
2021/05/12 07:45:33;;;;;;;10.13;4.25;;;;;;;;;;5036011;28;20201;-68
2021/05/12 07:47:58;;;;;;;8.02;4.30;;;;;;;;;;5035315;28;20236;-68
2021/05/12 07:50:23;;;;;;;12.73;4.47;;;;;;;;;;5035720;28;20756;-69
2021/05/12 07:52:49;;;;;;;8.68;3.50;;;;;;;;;;5040717;28;20182;-68
2021/05/12 07:55:15;;;;;;;10.10;4.20;;;;;;;;;;5031969;28;20196;-68
2021/05/12 07:57:40;;;;;;;14.60;4.40;;;;;;;;;;5033380;28;20182;-68
2021/05/12 08:00:09;;;;;;;12.02;4.53;;;;;;;;;;5029157;28;20192;-68
2021/05/12 08:02:34;;;;;;;11.30;4.50;;;;;;;;;;5044844;28;20358;-68
2021/05/12 08:04:59;;;;;;;18.02;5.07;;;;;;;;;;5029119;28;20281;-69
2021/05/12 08:07:25;;;;;;;14.65;5.35;;;;;;;;;;5038903;28;20186;-68
2021/05/12 08:09:50;;;;;;;11.52;4.70;;;;;;;;;;5026985;28;20190;-68
2021/05/12 08:12:16;;;;;;;15.13;5.60;;;;;;;;;;5036724;28;20690;-67
2021/05/12 08:14:41;;;;;;;13.00;5.85;;;;;;;;;;5031948;28;20194;-68
2021/05/12 08:17:06;;;;;;;12.40;5.20;;;;;;;;;;5039727;28;20944;-68
2021/05/12 08:19:32;;;;;;;12.60;5.95;;;;;;;;;;5039304;28;20235;-67
2021/05/12 08:22:01;;;;;;;10.27;5.07;;;;;;;;;;5039384;28;20186;-67
2021/05/12 08:24:26;;;;;;;13.95;6.28;;;;;;;;;;5041379;28;20500;-69
2021/05/12 08:26:52;;;;;;;9.88;4.97;;;;;;;;;;5038110;28;20186;-68
2021/05/12 08:29:18;;;;;;;10.27;5.07;;;;;;;;;;5042651;28;20220;-68
2021/05/12 08:31:46;;;;;;;12.57;5.80;;;;;;;;;;5034754;28;20186;-68
2021/05/12 08:34:11;;;;;;;10.05;5.18;;;;;;;;;;5039242;28;20263;-68
2021/05/12 08:36:36;;;;;;;13.65;5.90;;;;;;;;;;5037341;28;20350;-68
2021/05/12 08:39:04;;;;;;;12.38;5.88;;;;;;;;;;5040571;28;20630;-67
2021/05/12 08:41:32;;;;;;;10.65;5.95;;;;;;;;;;5034102;28;20261;-68
2021/05/12 08:43:58;;;;;;;12.30;5.70;;;;;;;;;;5038211;28;20309;-68
2021/05/12 08:46:24;;;;;;;14.20;6.60;;;;;;;;;;5036285;28;20284;-68
2021/05/12 08:48:50;;;;;;;15.80;6.22;;;;;;;;;;5038298;28;20202;-68
2021/05/12 08:51:16;;;;;;;12.18;5.55;;;;;;;;;;5033607;28;20198;-68
2021/05/12 08:53:43;;;;;;;16.50;6.43;;;;;;;;;;5033533;28;20235;-69
2021/05/12 08:56:08;;;;;;;11.10;5.63;;;;;;;;;;5047511;28;20306;-69
2021/05/12 08:58:33;;;;;;;13.95;5.47;;;;;;;;;;5032999;28;20676;-68
2021/05/12 09:00:59;;;;;;;10.07;4.70;;;;;;;;;;5044619;28;20681;-69
2021/05/12 09:03:28;;;;;;;9.18;5.15;;;;;;;;;;5037871;28;20767;-69
2021/05/12 09:05:56;;;;;;;8.35;4.25;;;;;;;;;;5041032;28;20181;-69
2021/05/12 09:08:21;;;;;;;11.38;4.10;;;;;;;;;;5028673;28;20573;-69
2021/05/12 09:10:47;;;;;;;11.48;4.18;;;;;;;;;;5041386;28;20256;-69
2021/05/12 09:13:28;;;;;;;13.50;4.63;;;;;;;;;;5031455;28;20309;-69
2021/05/12 09:15:54;;;;;;;8.13;4.10;;;;;;;;;;5046186;28;20367;-68
2021/05/12 09:18:28;;;;;;;14.68;4.15;;;;;;;;;;5032012;28;20699;-68
2021/05/12 09:20:53;;;;;;;9.27;4.40;;;;;;;;;;5044744;28;20180;-68
2021/05/12 09:23:22;;;;;;;9.07;3.60;;;;;;;;;;5032929;28;20188;-68
2021/05/12 09:25:57;;;;;;;8.23;3.80;;;;;;;;;;5041877;28;20181;-68
2021/05/12 09:28:28;;;;;;;7.57;3.45;;;;;;;;;;5026829;28;20208;-69
2021/05/12 09:31:07;;;;;;;10.23;3.95;;;;;;;;;;5041680;28;20661;-69
2021/05/12 09:33:36;;;;;;;11.65;4.15;;;;;;;;;;5032235;28;20275;-67
2021/05/12 09:36:03;;;;;;;8.88;3.25;;;;;;;;;;5039093;28;20696;-67
2021/05/12 09:38:30;;;;;;;7.22;3.20;;;;;;;;;;5035730;28;20200;-68
2021/05/12 09:41:02;;;;;;;9.48;3.20;;;;;;;;;;5039633;28;20603;-69
2021/05/12 09:43:29;;;;;;;7.75;3.05;;;;;;;;;;5037061;28;20234;-68
2021/05/12 09:46:17;;;;;;;6.97;3.40;;;;;;;;;;5038745;28;20205;-69
2021/05/12 09:48:58;;;;;;;8.52;3.05;;;;;;;;;;5040081;28;20205;-68
2021/05/12 09:51:25;;;;;;;8.25;3.45;;;;;;;;;;5038655;28;20250;-69
2021/05/12 09:54:11;;;;;;;8.52;4.10;;;;;;;;;;5041390;28;20177;-69
2021/05/12 09:56:39;;;;;;;7.40;3.20;;;;;;;;;;5030755;28;20243;-69
2021/05/12 09:59:10;;;;;;;6.35;2.50;;;;;;;;;;5037282;28;20236;-68
2021/05/12 10:01:58;;;;;;;8.07;3.15;;;;;;;;;;5036971;28;20734;-68
2021/05/12 10:04:35;;;;;;;8.68;3.42;;;;;;;;;;5040074;28;20245;-69
2021/05/12 10:07:21;;;;;;;10.15;3.33;;;;;;;;;;5030211;28;20736;-69
2021/05/12 10:09:55;;;;;;;7.22;3.42;;;;;;;;;;5035479;28;20217;-69
2021/05/12 10:12:25;;;;;;;9.02;3.60;;;;;;;;;;5031400;28;20189;-69
2021/05/12 10:14:56;;;;;;;10.82;3.00;;;;;;;;;;5034415;28;20282;-69
2021/05/12 10:17:22;;;;;;;5.70;2.72;;;;;;;;;;5030652;28;20189;-69
2021/05/12 10:19:49;;;;;;;7.28;2.45;;;;;;;;;;5042503;28;20181;-68
2021/05/12 10:22:16;;;;;;;6.25;2.65;;;;;;;;;;5032998;28;20285;-68
2021/05/12 10:24:45;;;;;;;10.98;3.20;;;;;;;;;;5040843;28;20208;-68
2021/05/12 10:27:31;;;;;;;8.07;3.38;;;;;;;;;;5037981;28;20199;-69
2021/05/12 10:29:58;;;;;;;6.35;2.83;;;;;;;;;;5043159;28;20196;-68
2021/05/12 10:32:33;;;;;;;6.45;2.20;;;;;;;;;;5033694;28;20186;-68
2021/05/12 10:35:13;;;;;;;8.60;2.92;;;;;;;;;;5036432;28;20188;-69
2021/05/12 10:37:46;;;;;;;6.72;2.33;;;;;;;;;;5035344;28;20186;-69
2021/05/12 10:40:20;;;;;;;7.72;2.35;;;;;;;;;;5036357;28;20178;-68
2021/05/12 10:43:16;;;;;;;6.63;2.65;;;;;;;;;;5029832;28;20696;-68
2021/05/12 10:45:47;;;;;;;9.00;2.80;;;;;;;;;;5040681;28;20614;-69
2021/05/12 10:48:44;;;;;;;7.20;2.47;;;;;;;;;;5032544;28;20222;-69
2021/05/12 10:51:29;;;;;;;10.88;2.47;;;;;;;;;;5029224;28;20332;-69
2021/05/12 10:53:57;;;;;;;6.97;2.13;;;;;;;;;;5027417;28;20190;-69
2021/05/12 10:56:33;;;;;;;5.40;2.10;;;;;;;;;;5036537;28;20196;-68
2021/05/12 10:59:00;;;;;;;9.18;2.92;;;;;;;;;;5028280;28;20220;-69
2021/05/12 11:01:42;;;;;;;8.35;2.83;;;;;;;;;;5033567;28;20181;-69
2021/05/12 11:04:11;;;;;;;5.80;2.33;;;;;;;;;;5027705;28;20237;-69
2021/05/12 11:06:39;;;;;;;9.43;2.95;;;;;;;;;;5038618;28;20213;-68
2021/05/12 11:09:13;;;;;;;5.45;2.25;;;;;;;;;;5028912;28;20585;-69
2021/05/12 11:11:44;;;;;;;7.35;2.15;;;;;;;;;;5041438;28;20185;-69
2021/05/12 11:14:22;;;;;;;5.97;2.15;;;;;;;;;;5030104;28;20197;-70
2021/05/12 11:17:22;;;;;;;6.20;2.00;;;;;;;;;;5036978;28;20221;-69
2021/05/12 11:19:56;;;;;;;6.45;2.20;;;;;;;;;;5032348;28;20197;-70
2021/05/12 11:24:58;;;;;;;5.32;1.92;;;;;;;;;;5034338;28;20276;-69
2021/05/12 11:31:26;;;;;;;11.05;2.28;;;;;;;;;;5031325;28;20240;-69
2021/05/12 11:32:40;;;;;;;5.88;2.47;;;;;;;;;;5039923;28;20621;-70
2021/05/12 11:35:08;;;;;;;7.18;2.70;;;;;;;;;;5035197;28;20272;-69
2021/05/12 11:37:34;;;;;;;6.88;2.25;;;;;;;;;;5043640;28;20288;-68
2021/05/12 11:40:00;;;;;;;8.32;2.97;;;;;;;;;;5030159;28;20662;-68
2021/05/12 11:42:30;;;;;;;7.72;1.92;;;;;;;;;;5041126;28;20264;-69
2021/05/12 11:45:07;;;;;;;6.88;2.00;;;;;;;;;;5040394;28;20526;-69
2021/05/12 11:47:34;;;;;;;7.57;2.28;;;;;;;;;;5040743;28;20190;-69
2021/05/12 11:49:59;;;;;;;8.07;2.60;;;;;;;;;;5039020;28;20182;-69
2021/05/12 11:52:32;;;;;;;9.02;1.85;;;;;;;;;;5025912;28;20247;-69
2021/05/12 11:55:08;;;;;;;4.97;1.95;;;;;;;;;;5035517;28;20589;-70
2021/05/12 11:57:37;;;;;;;4.35;1.48;;;;;;;;;;5032339;28;20201;-70
2021/05/12 12:00:09;;;;;;;5.18;1.48;;;;;;;;;;5044972;28;20186;-70
2021/05/12 12:02:37;;;;;;;7.82;2.03;;;;;;;;;;5030023;28;20221;-70
2021/05/12 12:05:05;;;;;;;8.23;1.80;;;;;;;;;;5033451;28;20213;-69
2021/05/12 12:07:33;;;;;;;5.95;1.67;;;;;;;;;;5032693;28;20202;-69
2021/05/12 12:10:04;;;;;;;4.75;1.60;;;;;;;;;;5039040;28;20189;-70
2021/05/12 12:12:29;;;;;;;10.15;2.13;;;;;;;;;;5032915;28;20201;-70
2021/05/12 12:15:05;;;;;;;10.10;2.35;;;;;;;;;;5040100;28;20571;-70
2021/05/12 12:17:31;;;;;;;7.22;1.88;;;;;;;;;;5028195;28;20190;-70
2021/05/12 12:20:04;;;;;;;6.25;1.88;;;;;;;;;;5040792;28;20651;-69
2021/05/12 12:22:30;;;;;;;7.63;1.80;;;;;;;;;;5033027;28;20268;-70
2021/05/12 12:24:56;;;;;;;7.70;1.60;;;;;;;;;;5045359;28;20197;-70
2021/05/12 12:27:21;;;;;;;5.78;1.80;;;;;;;;;;5028225;28;20614;-70
2021/05/12 12:29:49;;;;;;;7.93;2.00;;;;;;;;;;5042540;28;20479;-69
2021/05/12 12:32:16;;;;;;;4.43;1.70;;;;;;;;;;5029457;28;20590;-70
2021/05/12 12:34:44;;;;;;;8.43;1.67;;;;;;;;;;5035512;28;20271;-70
2021/05/12 12:37:20;;;;;;;9.53;1.70;;;;;;;;;;5041097;28;20437;-69
2021/05/12 12:39:58;;;;;;;5.85;1.80;;;;;;;;;;5024633;28;20645;-69
2021/05/12 12:42:29;;;;;;;7.35;1.40;;;;;;;;;;5039186;28;20181;-69
2021/05/12 12:44:59;;;;;;;4.25;1.10;;;;;;;;;;5035769;28;20664;-68
2021/05/12 12:47:26;;;;;;;6.47;1.30;;;;;;;;;;5040718;28;20352;-68
2021/05/12 12:50:08;;;;;;;4.28;1.60;;;;;;;;;;5031280;28;20185;-69
2021/05/12 12:52:41;;;;;;;4.95;1.30;;;;;;;;;;5040215;28;20264;-69
2021/05/12 12:55:11;;;;;;;4.70;1.50;;;;;;;;;;5031356;28;20197;-68
2021/05/12 12:57:41;;;;;;;6.68;1.63;;;;;;;;;;5043792;28;20671;-68
2021/05/12 13:00:11;;;;;;;9.73;1.70;;;;;;;;;;5038581;28;20332;-69
2021/05/12 13:02:38;;;;;;;9.20;1.83;;;;;;;;;;5040052;28;20673;-69
2021/05/12 13:05:15;;;;;;;6.80;1.63;;;;;;;;;;5031724;28;20734;-69
2021/05/12 13:07:41;;;;;;;7.63;1.92;;;;;;;;;;5041203;28;20640;-70
2021/05/12 13:10:27;;;;;;;7.68;1.70;;;;;;;;;;5027203;28;20607;-70
2021/05/12 13:12:54;;;;;;;7.63;1.50;;;;;;;;;;5037993;28;20247;-70
2021/05/12 13:15:20;;;;;;;8.30;1.70;;;;;;;;;;5032497;28;20189;-70
2021/05/12 13:18:00;;;;;;;8.98;2.17;;;;;;;;;;5040813;28;20169;-70
2021/05/12 13:20:27;;;;;;;6.00;1.60;;;;;;;;;;5030771;28;20194;-70
2021/05/12 13:23:03;;;;;;;4.88;1.45;;;;;;;;;;5035425;28;20180;-69
2021/05/12 13:25:29;;;;;;;7.45;2.00;;;;;;;;;;5031063;28;20185;-69
2021/05/12 13:27:54;;;;;;;7.07;2.17;;;;;;;;;;5039472;28;20247;-69
2021/05/12 13:30:20;;;;;;;11.35;1.75;;;;;;;;;;5030395;28;20733;-69
2021/05/12 13:32:45;;;;;;;7.00;1.85;;;;;;;;;;5038498;28;20582;-69
2021/05/12 13:35:11;;;;;;;7.65;1.60;;;;;;;;;;5034550;28;20644;-69
2021/05/12 13:37:39;;;;;;;7.88;1.98;;;;;;;;;;5045748;28;20185;-69
2021/05/12 13:40:06;;;;;;;9.65;1.85;;;;;;;;;;5037967;28;20190;-69
2021/05/12 13:42:31;;;;;;;9.23;1.90;;;;;;;;;;5030190;28;20545;-69
2021/05/12 13:44:57;;;;;;;9.18;2.00;;;;;;;;;;5037401;28;20193;-70
2021/05/12 13:47:22;;;;;;;5.80;1.85;;;;;;;;;;5025221;28;20185;-70
2021/05/12 13:49:48;;;;;;;8.55;1.73;;;;;;;;;;5039048;28;20214;-70
2021/05/12 13:52:13;;;;;;;6.97;1.55;;;;;;;;;;5028339;28;20189;-70
2021/05/12 13:54:53;;;;;;;9.85;1.80;;;;;;;;;;5028778;28;20208;-70
2021/05/12 13:57:28;;;;;;;9.52;2.10;;;;;;;;;;5027381;28;20540;-70
2021/05/12 14:02:51;;;;;;;10.18;2.40;;;;;;;;;;5029196;28;20277;-70
2021/05/12 14:05:16;;;;;;;12.07;2.13;;;;;;;;;;5036043;28;20197;-70
2021/05/12 14:07:41;;;;;;;9.70;2.17;;;;;;;;;;5027622;28;20238;-70
2021/05/12 14:10:08;;;;;;;10.05;2.30;;;;;;;;;;5039695;28;20189;-69
2021/05/12 14:12:39;;;;;;;7.63;2.33;;;;;;;;;;5027700;28;20185;-68
2021/05/12 14:15:25;;;;;;;11.65;2.30;;;;;;;;;;5037219;28;20622;-69
2021/05/12 14:17:50;;;;;;;13.90;3.13;;;;;;;;;;5025665;28;20190;-68
2021/05/12 14:20:16;;;;;;;8.05;2.03;;;;;;;;;;5035103;28;20254;-68
2021/05/12 14:22:41;;;;;;;10.63;2.03;;;;;;;;;;5038939;28;20189;-68
2021/05/12 14:25:07;;;;;;;9.75;2.80;;;;;;;;;;5030261;28;20194;-69
2021/05/12 14:27:32;;;;;;;12.13;2.40;;;;;;;;;;5036115;28;20192;-69
2021/05/12 14:30:02;;;;;;;10.75;2.10;;;;;;;;;;5034372;28;20617;-69
2021/05/12 14:32:28;;;;;;;8.80;2.22;;;;;;;;;;5035321;28;20177;-70
2021/05/12 14:34:53;;;;;;;7.68;2.03;;;;;;;;;;5030574;28;20270;-70
2021/05/12 14:37:18;;;;;;;8.70;1.95;;;;;;;;;;5033461;28;20212;-70
2021/05/12 14:39:47;;;;;;;10.07;2.50;;;;;;;;;;5030163;28;20198;-70
2021/05/12 14:42:13;;;;;;;9.75;2.55;;;;;;;;;;5037446;28;20178;-70